RAJ406 WARR-WIHH
Flight info
| Callsign | RAJ406 |
|---|---|
| Flight time | N/A |
| Altitude | 36000 |
| Route | LASEM CUCUT W16 IMU |
| Aircraft | A400/M-SDFGHIRWY/EB2 |
Departure
| Time | 2026-04-27 10:10 |
|---|---|
| Airport | Juanda International Airport (WARR) |
Arrival
| Time | N/A |
|---|---|
| Airport | Halim Perdanakusuma International Airport (WIHH) |
| Time | Latitude | Longitude | Altitude | Speed | Heading |
|---|---|---|---|---|---|
| 2026-04-27 09:50 | -7.38336 | 112.77820 | 29 ft | 0 kts | 190° |
| 2026-04-27 10:01 | -7.38328 | 112.77822 | 29 ft | 3 kts | 190° |
| 2026-04-27 10:01 | -7.38308 | 112.77826 | 29 ft | 3 kts | 193° |
| 2026-04-27 10:02 | -7.38288 | 112.77831 | 29 ft | 3 kts | 197° |
| 2026-04-27 10:02 | -7.38269 | 112.77837 | 29 ft | 3 kts | 205° |
| 2026-04-27 10:02 | -7.38254 | 112.77845 | 29 ft | 1 kts | 216° |
| 2026-04-27 10:02 | -7.38249 | 112.77849 | 29 ft | 0 kts | 216° |
| 2026-04-27 10:05 | -7.38252 | 112.77846 | 29 ft | 3 kts | 217° |
| 2026-04-27 10:06 | -7.38252 | 112.77824 | 29 ft | 5 kts | 290° |
| 2026-04-27 10:06 | -7.38246 | 112.77777 | 29 ft | 9 kts | 278° |
| 2026-04-27 10:06 | -7.38211 | 112.77714 | 29 ft | 12 kts | 310° |
| 2026-04-27 10:06 | -7.38165 | 112.77649 | 29 ft | 5 kts | 273° |
| 2026-04-27 10:07 | -7.38157 | 112.77599 | 29 ft | 8 kts | 310° |
| 2026-04-27 10:07 | -7.38096 | 112.77594 | 29 ft | 10 kts | 8° |
| 2026-04-27 10:07 | -7.38023 | 112.77592 | 29 ft | 11 kts | 331° |
| 2026-04-27 10:07 | -7.37987 | 112.77520 | 29 ft | 13 kts | 281° |
| 2026-04-27 10:08 | -7.37971 | 112.77421 | 29 ft | 16 kts | 279° |
| 2026-04-27 10:08 | -7.37951 | 112.77309 | 30 ft | 17 kts | 290° |
| 2026-04-27 10:08 | -7.37889 | 112.77288 | 29 ft | 9 kts | 8° |
| 2026-04-27 10:08 | -7.37830 | 112.77324 | 29 ft | 11 kts | 36° |
| 2026-04-27 10:09 | -7.37777 | 112.77377 | 29 ft | 10 kts | 64° |
| 2026-04-27 10:09 | -7.37780 | 112.77437 | 30 ft | 11 kts | 98° |
| 2026-04-27 10:09 | -7.37838 | 112.77859 | 30 ft | 121 kts | 98° |
| 2026-04-27 10:09 | -7.38010 | 112.79005 | 128 ft | 191 kts | 98° |
| 2026-04-27 10:10 | -7.38336 | 112.80337 | 721 ft | 207 kts | 103° |
| 2026-04-27 10:10 | -7.38670 | 112.81819 | 1550 ft | 220 kts | 101° |
| 2026-04-27 10:10 | -7.38911 | 112.83331 | 2405 ft | 231 kts | 96° |
| 2026-04-27 10:10 | -7.38859 | 112.85017 | 3430 ft | 241 kts | 79° |
| 2026-04-27 10:11 | -7.38239 | 112.86570 | 4515 ft | 249 kts | 57° |
| 2026-04-27 10:11 | -7.36930 | 112.87718 | 5649 ft | 256 kts | 25° |
| 2026-04-27 10:11 | -7.35162 | 112.87924 | 6793 ft | 259 kts | 355° |
| 2026-04-27 10:11 | -7.33346 | 112.87705 | 8023 ft | 258 kts | 358° |
| 2026-04-27 10:12 | -7.31552 | 112.87674 | 9282 ft | 256 kts | 4° |
| 2026-04-27 10:12 | -7.29762 | 112.87725 | 10430 ft | 261 kts | 9° |
| 2026-04-27 10:12 | -7.27940 | 112.88124 | 11025 ft | 286 kts | 11° |
| 2026-04-27 10:12 | -7.25849 | 112.88075 | 11517 ft | 310 kts | 358° |
| 2026-04-27 10:13 | -7.23650 | 112.87890 | 12208 ft | 320 kts | 358° |
| 2026-04-27 10:13 | -7.21448 | 112.87730 | 12981 ft | 326 kts | 359° |
| 2026-04-27 10:13 | -7.19178 | 112.87610 | 13766 ft | 330 kts | 0° |
| 2026-04-27 10:13 | -7.16900 | 112.87518 | 14475 ft | 334 kts | 359° |
| 2026-04-27 10:14 | -7.14608 | 112.87055 | 15206 ft | 343 kts | 339° |
| 2026-04-27 10:14 | -7.12634 | 112.85609 | 15969 ft | 350 kts | 312° |
| 2026-04-27 10:14 | -7.11468 | 112.83449 | 16725 ft | 356 kts | 286° |
| 2026-04-27 10:14 | -7.11066 | 112.81040 | 17468 ft | 359 kts | 276° |
| 2026-04-27 10:15 | -7.10803 | 112.78527 | 18207 ft | 363 kts | 276° |
| 2026-04-27 10:15 | -7.10493 | 112.75983 | 18842 ft | 367 kts | 277° |
| 2026-04-27 10:15 | -7.10125 | 112.73434 | 19461 ft | 371 kts | 278° |
| 2026-04-27 10:15 | -7.09721 | 112.70904 | 20054 ft | 375 kts | 279° |
| 2026-04-27 10:16 | -7.09277 | 112.68242 | 20650 ft | 379 kts | 279° |
| 2026-04-27 10:16 | -7.08822 | 112.65623 | 21267 ft | 382 kts | 279° |
| 2026-04-27 10:16 | -7.08378 | 112.63092 | 21708 ft | 378 kts | 279° |
| 2026-04-27 10:16 | -7.07902 | 112.60405 | 22130 ft | 386 kts | 280° |
| 2026-04-27 10:17 | -7.07446 | 112.57795 | 22448 ft | 376 kts | 278° |
| 2026-04-27 10:17 | -7.06993 | 112.55327 | 22281 ft | 351 kts | 279° |
| 2026-04-27 10:17 | -7.06575 | 112.52976 | 22042 ft | 336 kts | 283° |
| 2026-04-27 10:17 | -7.06151 | 112.50701 | 21861 ft | 325 kts | 276° |
| 2026-04-27 10:18 | -7.05757 | 112.48476 | 21739 ft | 317 kts | 283° |
| 2026-04-27 10:18 | -7.05361 | 112.46337 | 21618 ft | 310 kts | 282° |
| 2026-04-27 10:18 | -7.05146 | 112.44148 | 21477 ft | 321 kts | 259° |
| 2026-04-27 10:18 | -7.05662 | 112.42020 | 22218 ft | 314 kts | 256° |
| 2026-04-27 10:19 | -7.05789 | 112.39828 | 22973 ft | 307 kts | 283° |
| 2026-04-27 10:19 | -7.04892 | 112.37846 | 22942 ft | 334 kts | 299° |
| 2026-04-27 10:19 | -7.03842 | 112.35707 | 23109 ft | 331 kts | 291° |
| 2026-04-27 10:19 | -7.03197 | 112.33542 | 22869 ft | 322 kts | 279° |
| 2026-04-27 10:20 | -7.02721 | 112.31422 | 22623 ft | 305 kts | 279° |
| 2026-04-27 10:20 | -7.02236 | 112.29379 | 22408 ft | 294 kts | 290° |
| 2026-04-27 10:20 | -7.01570 | 112.27527 | 22137 ft | 287 kts | 295° |
| 2026-04-27 10:20 | -7.00821 | 112.25652 | 21987 ft | 277 kts | 297° |
| 2026-04-27 10:21 | -7.00113 | 112.23876 | 21883 ft | 271 kts | 296° |
| 2026-04-27 10:21 | -6.99434 | 112.22123 | 21805 ft | 267 kts | 290° |
| 2026-04-27 10:21 | -6.98756 | 112.20367 | 21794 ft | 268 kts | 293° |
| 2026-04-27 10:21 | -6.98059 | 112.18643 | 21930 ft | 278 kts | 291° |
| 2026-04-27 10:22 | -6.97305 | 112.16765 | 22270 ft | 295 kts | 291° |
| 2026-04-27 10:22 | -6.96511 | 112.14824 | 22548 ft | 311 kts | 294° |
| 2026-04-27 10:22 | -6.95480 | 112.12885 | 22791 ft | 324 kts | 301° |
| 2026-04-27 10:22 | -6.94237 | 112.10924 | 23024 ft | 335 kts | 303° |
| 2026-04-27 10:23 | -6.93010 | 112.09031 | 22911 ft | 315 kts | 306° |
| 2026-04-27 10:23 | -6.91842 | 112.07208 | 22654 ft | 301 kts | 300° |
| 2026-04-27 10:23 | -6.90714 | 112.05484 | 22405 ft | 288 kts | 298° |
| 2026-04-27 10:23 | -6.89644 | 112.03854 | 22245 ft | 278 kts | 299° |
| 2026-04-27 10:24 | -6.88557 | 112.02235 | 22123 ft | 271 kts | 300° |
| 2026-04-27 10:24 | -6.87504 | 112.00718 | 22027 ft | 265 kts | 295° |
| 2026-04-27 10:24 | -6.86512 | 111.99176 | 21954 ft | 261 kts | 298° |
| 2026-04-27 10:24 | -6.85530 | 111.97665 | 21885 ft | 258 kts | 300° |
| 2026-04-27 10:25 | -6.84874 | 111.96677 | 21891 ft | 261 kts | 302° |
| 2026-04-27 10:25 | -6.83454 | 111.94507 | 22301 ft | 286 kts | 303° |
| 2026-04-27 10:25 | -6.82323 | 111.92775 | 22604 ft | 303 kts | 303° |
| 2026-04-27 10:25 | -6.81137 | 111.90959 | 22801 ft | 319 kts | 303° |
| 2026-04-27 10:26 | -6.80310 | 111.89694 | 22821 ft | 332 kts | 303° |
| 2026-04-27 10:26 | -6.79010 | 111.87707 | 22819 ft | 349 kts | 303° |
| 2026-04-27 10:26 | -6.77648 | 111.85628 | 22821 ft | 362 kts | 303° |
| 2026-04-27 10:26 | -6.76240 | 111.83477 | 22818 ft | 372 kts | 303° |
| 2026-04-27 10:27 | -6.74799 | 111.81278 | 22822 ft | 384 kts | 303° |
| 2026-04-27 10:27 | -6.73315 | 111.79013 | 22819 ft | 390 kts | 303° |
| 2026-04-27 10:27 | -6.71815 | 111.76723 | 22815 ft | 392 kts | 303° |
| 2026-04-27 10:27 | -6.70327 | 111.74454 | 22814 ft | 393 kts | 303° |
| 2026-04-27 10:28 | -6.68863 | 111.72215 | 22815 ft | 393 kts | 303° |
| 2026-04-27 10:28 | -6.67354 | 111.69904 | 23042 ft | 391 kts | 303° |
| 2026-04-27 10:28 | -6.65849 | 111.67609 | 23308 ft | 395 kts | 303° |
| 2026-04-27 10:28 | -6.64301 | 111.65254 | 23234 ft | 397 kts | 303° |
| 2026-04-27 10:29 | -6.62791 | 111.62956 | 23111 ft | 398 kts | 303° |
| 2026-04-27 10:29 | -6.61258 | 111.60595 | 23481 ft | 401 kts | 303° |
| 2026-04-27 10:29 | -6.59759 | 111.58234 | 23979 ft | 400 kts | 302° |
| 2026-04-27 10:29 | -6.58279 | 111.55872 | 24383 ft | 401 kts | 302° |
| 2026-04-27 10:30 | -6.56805 | 111.53502 | 24507 ft | 397 kts | 302° |
| 2026-04-27 10:30 | -6.55355 | 111.51162 | 24471 ft | 385 kts | 303° |
| 2026-04-27 10:30 | -6.54017 | 111.49020 | 24126 ft | 358 kts | 298° |
| 2026-04-27 10:30 | -6.52686 | 111.46844 | 23938 ft | 363 kts | 302° |
| 2026-04-27 10:31 | -6.51302 | 111.44647 | 24134 ft | 378 kts | 303° |
| 2026-04-27 10:31 | -6.49883 | 111.42405 | 24358 ft | 390 kts | 303° |
| 2026-04-27 10:31 | -6.48397 | 111.40055 | 24613 ft | 398 kts | 303° |
| 2026-04-27 10:31 | -6.46905 | 111.37691 | 24938 ft | 402 kts | 303° |
| 2026-04-27 10:32 | -6.45402 | 111.35304 | 25277 ft | 405 kts | 303° |
| 2026-04-27 10:32 | -6.43924 | 111.32953 | 25584 ft | 408 kts | 303° |
| 2026-04-27 10:32 | -6.42421 | 111.30551 | 25803 ft | 410 kts | 302° |
| 2026-04-27 10:32 | -6.40854 | 111.28049 | 26120 ft | 412 kts | 303° |
| 2026-04-27 10:33 | -6.39369 | 111.25686 | 26427 ft | 414 kts | 303° |
| 2026-04-27 10:33 | -6.37797 | 111.23187 | 26732 ft | 415 kts | 303° |
| 2026-04-27 10:33 | -6.36232 | 111.20699 | 27021 ft | 417 kts | 303° |
| 2026-04-27 10:33 | -6.34703 | 111.18270 | 27287 ft | 419 kts | 303° |
| 2026-04-27 10:34 | -6.33140 | 111.15785 | 27528 ft | 421 kts | 303° |
| 2026-04-27 10:34 | -6.31675 | 111.13213 | 27767 ft | 423 kts | 297° |
| 2026-04-27 10:34 | -6.30552 | 111.10500 | 28000 ft | 425 kts | 289° |
| 2026-04-27 10:34 | -6.29831 | 111.07625 | 28205 ft | 427 kts | 279° |
| 2026-04-27 10:35 | -6.29549 | 111.04628 | 28407 ft | 429 kts | 272° |
| 2026-04-27 10:35 | -6.29465 | 111.01623 | 28604 ft | 430 kts | 270° |
| 2026-04-27 10:35 | -6.29463 | 110.98609 | 28796 ft | 431 kts | 269° |
| 2026-04-27 10:35 | -6.29498 | 110.95631 | 28970 ft | 433 kts | 269° |
| 2026-04-27 10:36 | -6.29544 | 110.92623 | 29147 ft | 434 kts | 269° |
| 2026-04-27 10:36 | -6.29586 | 110.89517 | 29335 ft | 435 kts | 269° |
| 2026-04-27 10:36 | -6.29619 | 110.86480 | 29560 ft | 434 kts | 269° |
| 2026-04-27 10:36 | -6.29643 | 110.83485 | 29789 ft | 434 kts | 269° |
| 2026-04-27 10:37 | -6.29661 | 110.80491 | 29987 ft | 434 kts | 269° |
| 2026-04-27 10:37 | -6.29677 | 110.77412 | 30204 ft | 433 kts | 270° |
| 2026-04-27 10:37 | -6.29690 | 110.74387 | 30421 ft | 432 kts | 270° |
| 2026-04-27 10:37 | -6.29702 | 110.71461 | 30644 ft | 432 kts | 270° |
| 2026-04-27 10:38 | -6.29715 | 110.68370 | 30865 ft | 431 kts | 270° |
| 2026-04-27 10:38 | -6.29728 | 110.65398 | 31079 ft | 431 kts | 270° |
| 2026-04-27 10:38 | -6.29741 | 110.62370 | 31307 ft | 430 kts | 270° |
| 2026-04-27 10:38 | -6.29754 | 110.59341 | 31552 ft | 429 kts | 270° |
| 2026-04-27 10:39 | -6.29767 | 110.56317 | 31796 ft | 429 kts | 270° |
| 2026-04-27 10:39 | -6.29779 | 110.53382 | 32033 ft | 428 kts | 270° |
| 2026-04-27 10:39 | -6.29792 | 110.50376 | 32287 ft | 427 kts | 270° |
| 2026-04-27 10:39 | -6.29805 | 110.47382 | 32545 ft | 427 kts | 270° |
| 2026-04-27 10:40 | -6.29817 | 110.44462 | 32792 ft | 426 kts | 270° |
| 2026-04-27 10:40 | -6.29829 | 110.41455 | 33061 ft | 425 kts | 270° |
| 2026-04-27 10:40 | -6.29840 | 110.38528 | 33323 ft | 424 kts | 270° |
| 2026-04-27 10:40 | -6.29851 | 110.35488 | 33605 ft | 423 kts | 270° |
| 2026-04-27 10:41 | -6.29861 | 110.32529 | 33856 ft | 423 kts | 270° |
| 2026-04-27 10:41 | -6.29870 | 110.29606 | 34072 ft | 422 kts | 270° |
| 2026-04-27 10:41 | -6.29879 | 110.26656 | 34295 ft | 422 kts | 270° |
| 2026-04-27 10:41 | -6.29888 | 110.23702 | 34514 ft | 421 kts | 270° |
| 2026-04-27 10:42 | -6.29897 | 110.20770 | 34732 ft | 421 kts | 270° |
| 2026-04-27 10:42 | -6.29906 | 110.17827 | 34957 ft | 420 kts | 270° |
| 2026-04-27 10:42 | -6.29914 | 110.14898 | 35154 ft | 420 kts | 270° |
| 2026-04-27 10:42 | -6.29923 | 110.12018 | 35376 ft | 419 kts | 270° |
| 2026-04-27 10:43 | -6.29931 | 110.09091 | 35588 ft | 418 kts | 270° |
| 2026-04-27 10:43 | -6.29939 | 110.06166 | 35772 ft | 417 kts | 270° |
| 2026-04-27 10:43 | -6.29955 | 110.00365 | 35811 ft | 418 kts | 270° |
| 2026-04-27 10:44 | -6.29970 | 109.94516 | 35813 ft | 418 kts | 270° |
| 2026-04-27 10:44 | -6.29984 | 109.88747 | 35814 ft | 418 kts | 270° |
| 2026-04-27 10:45 | -6.29998 | 109.82881 | 35815 ft | 418 kts | 270° |
| 2026-04-27 10:45 | -6.30011 | 109.77031 | 35814 ft | 418 kts | 270° |
| 2026-04-27 10:46 | -6.30024 | 109.71185 | 35812 ft | 418 kts | 270° |
| 2026-04-27 10:46 | -6.30036 | 109.65357 | 35814 ft | 418 kts | 270° |
| 2026-04-27 10:47 | -6.30047 | 109.59555 | 35814 ft | 418 kts | 270° |
| 2026-04-27 10:47 | -6.30060 | 109.53748 | 35813 ft | 418 kts | 270° |
| 2026-04-27 10:48 | -6.30069 | 109.47891 | 35809 ft | 418 kts | 270° |
| 2026-04-27 10:48 | -6.30077 | 109.42094 | 35816 ft | 418 kts | 270° |
| 2026-04-27 10:49 | -6.30085 | 109.36219 | 35819 ft | 418 kts | 270° |
| 2026-04-27 10:49 | -6.30099 | 109.30348 | 35817 ft | 418 kts | 270° |
| 2026-04-27 10:50 | -6.30122 | 109.24545 | 35812 ft | 412 kts | 270° |
| 2026-04-27 10:50 | -6.30134 | 109.21717 | 35801 ft | 393 kts | 270° |
| 2026-04-27 10:50 | -6.30145 | 109.19047 | 35798 ft | 376 kts | 270° |
| 2026-04-27 10:51 | -6.30156 | 109.16447 | 35802 ft | 361 kts | 270° |
| 2026-04-27 10:51 | -6.30166 | 109.13990 | 35805 ft | 349 kts | 270° |
| 2026-04-27 10:51 | -6.30175 | 109.11555 | 35681 ft | 346 kts | 270° |
| 2026-04-27 10:51 | -6.30184 | 109.09179 | 35443 ft | 342 kts | 270° |
| 2026-04-27 10:52 | -6.30193 | 109.06872 | 35201 ft | 339 kts | 270° |
| 2026-04-27 10:52 | -6.30202 | 109.04436 | 34980 ft | 337 kts | 270° |
| 2026-04-27 10:52 | -6.30210 | 109.02079 | 34749 ft | 336 kts | 270° |
| 2026-04-27 10:52 | -6.30219 | 108.99738 | 34517 ft | 334 kts | 270° |
| 2026-04-27 10:53 | -6.30228 | 108.97471 | 34295 ft | 333 kts | 270° |
| 2026-04-27 10:53 | -6.30245 | 108.92766 | 33844 ft | 330 kts | 270° |
| 2026-04-27 10:53 | -6.30253 | 108.90491 | 33595 ft | 328 kts | 270° |
| 2026-04-27 10:54 | -6.30261 | 108.88204 | 33338 ft | 327 kts | 270° |
| 2026-04-27 10:54 | -6.30269 | 108.85911 | 33086 ft | 326 kts | 270° |
| 2026-04-27 10:54 | -6.30277 | 108.83639 | 32836 ft | 325 kts | 270° |
| 2026-04-27 10:54 | -6.30285 | 108.81370 | 32584 ft | 323 kts | 270° |
| 2026-04-27 10:55 | -6.30293 | 108.79111 | 32339 ft | 322 kts | 270° |
| 2026-04-27 10:55 | -6.30302 | 108.76887 | 32095 ft | 321 kts | 270° |
| 2026-04-27 10:55 | -6.30309 | 108.74640 | 31861 ft | 320 kts | 270° |
| 2026-04-27 10:55 | -6.30315 | 108.72410 | 31633 ft | 319 kts | 270° |
| 2026-04-27 10:56 | -6.30322 | 108.70198 | 31387 ft | 318 kts | 270° |
| 2026-04-27 10:56 | -6.30328 | 108.67974 | 31150 ft | 317 kts | 270° |
| 2026-04-27 10:56 | -6.30335 | 108.65748 | 30917 ft | 316 kts | 270° |
| 2026-04-27 10:56 | -6.30342 | 108.63534 | 30685 ft | 315 kts | 270° |
| 2026-04-27 10:57 | -6.30348 | 108.61332 | 30455 ft | 315 kts | 270° |
| 2026-04-27 10:57 | -6.30354 | 108.59162 | 30233 ft | 314 kts | 270° |
| 2026-04-27 10:57 | -6.30361 | 108.56946 | 30007 ft | 313 kts | 270° |
| 2026-04-27 10:57 | -6.30367 | 108.54782 | 29768 ft | 312 kts | 270° |
| 2026-04-27 10:58 | -6.30373 | 108.52664 | 29501 ft | 311 kts | 270° |
| 2026-04-27 10:58 | -6.30379 | 108.50431 | 29234 ft | 310 kts | 270° |
| 2026-04-27 10:58 | -6.30385 | 108.48262 | 28870 ft | 311 kts | 270° |
| 2026-04-27 10:58 | -6.30391 | 108.46095 | 28593 ft | 309 kts | 270° |
| 2026-04-27 10:59 | -6.30397 | 108.43927 | 28298 ft | 308 kts | 270° |
| 2026-04-27 10:59 | -6.30403 | 108.41789 | 27987 ft | 308 kts | 270° |
| 2026-04-27 10:59 | -6.30408 | 108.39696 | 27729 ft | 306 kts | 270° |
| 2026-04-27 11:00 | -6.30416 | 108.35483 | 27216 ft | 303 kts | 271° |
| 2026-04-27 11:00 | -6.30231 | 108.33377 | 26964 ft | 301 kts | 281° |
| 2026-04-27 11:00 | -6.29793 | 108.31327 | 26708 ft | 299 kts | 284° |
| 2026-04-27 11:00 | -6.29292 | 108.29305 | 26517 ft | 296 kts | 285° |
| 2026-04-27 11:01 | -6.28786 | 108.27303 | 26286 ft | 294 kts | 285° |
| 2026-04-27 11:01 | -6.28297 | 108.25371 | 26052 ft | 292 kts | 284° |
| 2026-04-27 11:01 | -6.27801 | 108.23398 | 25834 ft | 291 kts | 284° |
| 2026-04-27 11:01 | -6.27306 | 108.21428 | 25611 ft | 290 kts | 284° |
| 2026-04-27 11:02 | -6.26813 | 108.19462 | 25382 ft | 289 kts | 284° |
| 2026-04-27 11:02 | -6.26323 | 108.17503 | 25159 ft | 288 kts | 284° |
| 2026-04-27 11:02 | -6.25834 | 108.15552 | 24938 ft | 287 kts | 284° |
| 2026-04-27 11:02 | -6.25351 | 108.13621 | 24730 ft | 286 kts | 284° |
| 2026-04-27 11:03 | -6.24873 | 108.11712 | 24520 ft | 285 kts | 284° |
| 2026-04-27 11:03 | -6.24389 | 108.09779 | 24309 ft | 284 kts | 284° |
| 2026-04-27 11:03 | -6.23908 | 108.07857 | 24105 ft | 283 kts | 284° |
| 2026-04-27 11:03 | -6.23429 | 108.05943 | 23898 ft | 282 kts | 284° |
| 2026-04-27 11:04 | -6.22951 | 108.04033 | 23699 ft | 281 kts | 284° |
| 2026-04-27 11:04 | -6.22475 | 108.02135 | 23493 ft | 280 kts | 284° |
| 2026-04-27 11:04 | -6.22007 | 108.00266 | 23283 ft | 279 kts | 284° |
| 2026-04-27 11:04 | -6.21540 | 107.98377 | 23050 ft | 278 kts | 282° |
| 2026-04-27 11:05 | -6.21267 | 107.96459 | 22811 ft | 277 kts | 273° |
| 2026-04-27 11:05 | -6.21182 | 107.94525 | 22592 ft | 276 kts | 271° |
| 2026-04-27 11:05 | -6.21138 | 107.92607 | 22370 ft | 275 kts | 271° |
| 2026-04-27 11:05 | -6.21100 | 107.90682 | 22142 ft | 274 kts | 271° |
| 2026-04-27 11:06 | -6.21061 | 107.88769 | 21929 ft | 273 kts | 271° |
| 2026-04-27 11:06 | -6.21020 | 107.86885 | 21728 ft | 272 kts | 271° |
| 2026-04-27 11:06 | -6.20978 | 107.84979 | 21524 ft | 271 kts | 271° |
| 2026-04-27 11:06 | -6.20935 | 107.83086 | 21321 ft | 271 kts | 271° |
| 2026-04-27 11:07 | -6.20892 | 107.81196 | 21127 ft | 270 kts | 271° |
| 2026-04-27 11:07 | -6.20849 | 107.79309 | 20941 ft | 269 kts | 271° |
| 2026-04-27 11:07 | -6.20806 | 107.77437 | 20756 ft | 268 kts | 271° |
| 2026-04-27 11:07 | -6.20762 | 107.75563 | 20570 ft | 268 kts | 271° |
| 2026-04-27 11:08 | -6.20720 | 107.73720 | 20397 ft | 267 kts | 271° |
| 2026-04-27 11:08 | -6.20676 | 107.71853 | 20227 ft | 266 kts | 271° |
| 2026-04-27 11:08 | -6.20633 | 107.69992 | 20054 ft | 266 kts | 271° |
| 2026-04-27 11:08 | -6.20590 | 107.68133 | 19888 ft | 265 kts | 271° |
| 2026-04-27 11:09 | -6.20547 | 107.66284 | 19726 ft | 264 kts | 271° |
| 2026-04-27 11:09 | -6.20503 | 107.64437 | 19569 ft | 264 kts | 271° |
| 2026-04-27 11:09 | -6.20459 | 107.62598 | 19411 ft | 263 kts | 271° |
| 2026-04-27 11:09 | -6.20414 | 107.60761 | 19261 ft | 263 kts | 271° |
| 2026-04-27 11:10 | -6.20368 | 107.58940 | 19106 ft | 262 kts | 271° |
| 2026-04-27 11:10 | -6.20322 | 107.57111 | 18966 ft | 262 kts | 271° |
| 2026-04-27 11:10 | -6.20276 | 107.55280 | 18828 ft | 261 kts | 271° |
| 2026-04-27 11:10 | -6.20231 | 107.53456 | 18686 ft | 261 kts | 271° |
| 2026-04-27 11:11 | -6.20185 | 107.51632 | 18546 ft | 260 kts | 271° |
| 2026-04-27 11:11 | -6.20139 | 107.49801 | 18234 ft | 268 kts | 271° |
| 2026-04-27 11:11 | -6.20091 | 107.47904 | 17748 ft | 278 kts | 271° |
| 2026-04-27 11:11 | -6.20043 | 107.45977 | 17601 ft | 273 kts | 271° |
| 2026-04-27 11:12 | -6.19995 | 107.44090 | 17500 ft | 267 kts | 271° |
| 2026-04-27 11:12 | -6.19948 | 107.42247 | 17423 ft | 261 kts | 271° |
| 2026-04-27 11:12 | -6.19902 | 107.40436 | 17334 ft | 258 kts | 271° |
| 2026-04-27 11:12 | -6.19856 | 107.38641 | 17226 ft | 256 kts | 271° |
| 2026-04-27 11:13 | -6.19811 | 107.36859 | 17106 ft | 255 kts | 271° |
| 2026-04-27 11:13 | -6.19765 | 107.35074 | 16994 ft | 254 kts | 271° |
| 2026-04-27 11:13 | -6.19720 | 107.33302 | 16860 ft | 253 kts | 271° |
| 2026-04-27 11:13 | -6.19676 | 107.31565 | 16751 ft | 253 kts | 271° |
| 2026-04-27 11:14 | -6.19633 | 107.29794 | 16601 ft | 254 kts | 270° |
| 2026-04-27 11:14 | -6.19621 | 107.27988 | 16189 ft | 264 kts | 269° |
| 2026-04-27 11:14 | -6.19624 | 107.26105 | 15735 ft | 274 kts | 269° |
| 2026-04-27 11:14 | -6.19630 | 107.24153 | 15182 ft | 283 kts | 269° |
| 2026-04-27 11:15 | -6.19638 | 107.22141 | 14623 ft | 292 kts | 269° |
| 2026-04-27 11:15 | -6.19643 | 107.20775 | 14231 ft | 297 kts | 269° |
| 2026-04-27 11:15 | -6.19650 | 107.18688 | 13689 ft | 302 kts | 269° |
| 2026-04-27 11:15 | -6.19657 | 107.16563 | 13073 ft | 305 kts | 269° |
| 2026-04-27 11:16 | -6.19664 | 107.14422 | 12456 ft | 307 kts | 270° |
| 2026-04-27 11:16 | -6.19673 | 107.11572 | 11651 ft | 307 kts | 270° |
| 2026-04-27 11:16 | -6.19678 | 107.10124 | 11194 ft | 308 kts | 270° |
| 2026-04-27 11:16 | -6.19685 | 107.07973 | 10438 ft | 313 kts | 270° |
| 2026-04-27 11:17 | -6.19691 | 107.05775 | 9666 ft | 316 kts | 270° |
| 2026-04-27 11:17 | -6.20001 | 107.03592 | 8810 ft | 317 kts | 250° |
| 2026-04-27 11:17 | -6.20857 | 107.01557 | 7988 ft | 316 kts | 245° |
| 2026-04-27 11:17 | -6.21810 | 106.99560 | 7170 ft | 315 kts | 242° |
| 2026-04-27 11:18 | -6.22802 | 106.97601 | 6401 ft | 314 kts | 243° |
| 2026-04-27 11:18 | -6.23775 | 106.95645 | 5577 ft | 311 kts | 243° |
| 2026-04-27 11:18 | -6.24899 | 106.93833 | 4742 ft | 304 kts | 228° |
| 2026-04-27 11:18 | -6.26485 | 106.92495 | 4005 ft | 293 kts | 205° |
| 2026-04-27 11:19 | -6.28292 | 106.92119 | 3794 ft | 268 kts | 176° |
| 2026-04-27 11:19 | -6.29919 | 106.92600 | 3920 ft | 231 kts | 139° |
| 2026-04-27 11:19 | -6.30580 | 106.93886 | 4026 ft | 200 kts | 85° |
| 2026-04-27 11:19 | -6.30137 | 106.95127 | 4547 ft | 189 kts | 66° |
| 2026-04-27 11:20 | -6.29494 | 106.96316 | 5174 ft | 199 kts | 62° |
| 2026-04-27 11:20 | -6.28878 | 106.97563 | 5204 ft | 198 kts | 66° |
| 2026-04-27 11:20 | -6.28396 | 106.98845 | 5178 ft | 197 kts | 75° |
| 2026-04-27 11:20 | -6.28130 | 107.00211 | 5143 ft | 196 kts | 85° |
| 2026-04-27 11:21 | -6.28127 | 107.01588 | 5084 ft | 196 kts | 92° |
| 2026-04-27 11:21 | -6.28063 | 107.02931 | 5077 ft | 196 kts | 83° |
| 2026-04-27 11:21 | -6.27845 | 107.04307 | 5080 ft | 197 kts | 81° |
| 2026-04-27 11:21 | -6.27557 | 107.05647 | 5086 ft | 196 kts | 75° |
| 2026-04-27 11:22 | -6.27145 | 107.06940 | 5018 ft | 198 kts | 72° |
| 2026-04-27 11:22 | -6.26696 | 107.08255 | 4655 ft | 202 kts | 72° |
| 2026-04-27 11:22 | -6.26228 | 107.09624 | 4005 ft | 210 kts | 71° |
| 2026-04-27 11:22 | -6.25807 | 107.11050 | 3323 ft | 215 kts | 77° |
| 2026-04-27 11:23 | -6.25243 | 107.12462 | 2636 ft | 220 kts | 49° |
| 2026-04-27 11:23 | -6.23983 | 107.13172 | 2182 ft | 211 kts | 8° |
| 2026-04-27 11:23 | -6.22578 | 107.12982 | 2030 ft | 192 kts | 337° |
| 2026-04-27 11:23 | -6.21545 | 107.12274 | 1998 ft | 175 kts | 315° |
| 2026-04-27 11:24 | -6.20881 | 107.11311 | 1998 ft | 163 kts | 294° |
| 2026-04-27 11:24 | -6.20554 | 107.10287 | 2008 ft | 158 kts | 283° |
| 2026-04-27 11:24 | -6.20376 | 107.09202 | 2015 ft | 157 kts | 278° |
| 2026-04-27 11:24 | -6.20251 | 107.08110 | 2019 ft | 156 kts | 277° |
| 2026-04-27 11:25 | -6.20124 | 107.07025 | 2020 ft | 157 kts | 278° |
| 2026-04-27 11:25 | -6.19975 | 107.05961 | 2026 ft | 153 kts | 279° |
| 2026-04-27 11:25 | -6.19799 | 107.04908 | 2021 ft | 151 kts | 281° |
| 2026-04-27 11:25 | -6.19813 | 107.03865 | 1996 ft | 151 kts | 253° |
| 2026-04-27 11:26 | -6.20256 | 107.02891 | 2187 ft | 156 kts | 238° |
| 2026-04-27 11:26 | -6.20750 | 107.01931 | 2109 ft | 160 kts | 244° |
| 2026-04-27 11:26 | -6.21236 | 107.00937 | 2026 ft | 155 kts | 242° |
| 2026-04-27 11:26 | -6.21671 | 106.99993 | 2042 ft | 146 kts | 247° |
| 2026-04-27 11:27 | -6.22056 | 106.99112 | 2277 ft | 119 kts | 248° |
| 2026-04-27 11:27 | -6.22331 | 106.98275 | 2559 ft | 120 kts | 254° |
| 2026-04-27 11:27 | -6.22606 | 106.97536 | 2414 ft | 124 kts | 237° |
| 2026-04-27 11:27 | -6.23193 | 106.96985 | 2969 ft | 126 kts | 217° |
| 2026-04-27 11:28 | -6.23863 | 106.96401 | 2865 ft | 128 kts | 238° |
| 2026-04-27 11:28 | -6.24204 | 106.95641 | 2618 ft | 114 kts | 248° |
| 2026-04-27 11:28 | -6.24462 | 106.94890 | 2190 ft | 112 kts | 258° |
| 2026-04-27 11:28 | -6.24531 | 106.94098 | 1534 ft | 124 kts | 270° |
| 2026-04-27 11:29 | -6.24767 | 106.93331 | 886 ft | 124 kts | 230° |
| 2026-04-27 11:29 | -6.25211 | 106.92674 | 712 ft | 100 kts | 241° |
| 2026-04-27 11:29 | -6.25529 | 106.92007 | 269 ft | 122 kts | 266° |
| 2026-04-27 11:29 | -6.25803 | 106.91260 | 587 ft | 124 kts | 234° |
| 2026-04-27 11:30 | -6.25919 | 106.91139 | 574 ft | 135 kts | 227° |